Time;durP1;ratioP1;P1;durP2;ratioP2;P2;SDS_P1;SDS_P2;PMS_P1;PMS_P2;Temp;Humidity;BMP_temperature;BMP_pressure;BME280_temperature;BME280_humidity;BME280_pressure;Samples;Min_cycle;Max_cycle;Signal;HPM_P1;HPM_P2
2021/07/17 09:50:29;;;;;;;58.95;38.88;;;;;;;;;;4933495;29;20098;-74
2021/07/17 09:52:55;;;;;;;49.10;37.67;;;25.30;99.90;;;;;;5146366;23;20050;-63
2021/07/17 09:55:20;;;;;;;54.50;38.35;;;25.10;99.90;;;;;;4996551;28;20117;-65
2021/07/17 09:57:47;;;;;;;52.35;36.05;;;24.90;99.90;;;;;;4995524;28;20038;-63
2021/07/17 10:00:15;;;;;;;54.85;38.75;;;24.80;99.90;;;;;;4994979;28;20129;-61
2021/07/17 10:02:41;;;;;;;53.22;37.85;;;24.80;99.90;;;;;;4961502;28;20592;-62
2021/07/17 10:05:11;;;;;;;49.65;37.70;;;25.20;99.90;;;;;;4962306;28;20472;-61
2021/07/17 10:07:37;;;;;;;46.83;35.50;;;25.80;99.90;;;;;;4948109;28;20066;-60
2021/07/17 10:10:05;;;;;;;49.53;37.30;;;25.60;99.90;;;;;;4996905;28;20071;-60
2021/07/17 10:12:38;;;;;;;48.63;37.78;;;25.40;99.90;;;;;;4996492;28;20049;-62
2021/07/17 10:15:08;;;;;;;50.70;37.22;;;25.60;99.90;;;;;;4996740;28;20069;-62
2021/07/17 10:17:35;;;;;;;43.90;34.55;;;25.60;99.90;;;;;;4996551;28;20058;-61
2021/07/17 10:20:07;;;;;;;42.20;35.33;;;25.10;99.90;;;;;;4993394;28;20022;-60
2021/07/17 10:22:34;;;;;;;43.80;35.00;;;24.80;99.90;;;;;;4995968;28;20033;-59
2021/07/17 10:25:01;;;;;;;49.88;39.20;;;24.50;99.90;;;;;;4996062;28;20082;-60
2021/07/17 10:27:27;;;;;;;46.03;36.53;;;24.70;99.90;;;;;;4996589;28;20034;-60
2021/07/17 10:29:53;;;;;;;48.38;37.97;;;24.40;99.90;;;;;;4962034;28;20038;-61
2021/07/17 10:32:19;;;;;;;50.90;38.63;;;24.50;99.90;;;;;;4996424;28;20053;-61
2021/07/17 10:34:46;;;;;;;49.15;39.10;;;24.60;99.90;;;;;;4962215;28;20038;-60
2021/07/17 10:37:18;;;;;;;53.85;40.92;;;24.60;99.90;;;;;;4994694;28;20038;-61
2021/07/17 10:40:00;;;;;;;46.80;37.88;;;24.80;99.90;;;;;;4994726;28;20037;-61
2021/07/17 10:42:27;;;;;;;49.33;39.13;;;24.50;99.90;;;;;;4993398;28;20401;-60
2021/07/17 10:44:54;;;;;;;48.10;36.83;;;25.10;99.90;;;;;;4991706;28;20042;-62
2021/07/17 10:47:22;;;;;;;49.35;37.28;;;24.60;99.90;;;;;;4994305;28;20109;-61
2021/07/17 10:49:50;;;;;;;46.63;38.85;;;;;;;;;;4994794;28;20026;-62
2021/07/17 10:52:33;;;;;;;46.38;38.67;;;;;;;;;;4937195;29;20050;-58
2021/07/17 10:55:17;;;;;;;44.20;34.45;;;;;;;;;;4951895;28;20027;-60
2021/07/17 10:57:43;;;;;;;39.90;34.05;;;;;;;;;;4954927;29;20042;-62
2021/07/17 11:00:10;;;;;;;41.33;34.83;;;;;;;;;;4922628;29;20031;-61
2021/07/17 11:02:36;;;;;;;37.92;31.70;;;;;;;;;;4922602;29;20069;-60
2021/07/17 11:05:02;;;;;;;40.13;32.10;;;28.70;99.90;;;;;;4954375;29;20039;-62
2021/07/17 11:07:28;;;;;;;37.90;31.00;;;28.40;99.90;;;;;;4922388;29;20134;-61
2021/07/17 11:09:59;;;;;;;36.33;29.98;;;28.70;99.90;;;;;;4954394;29;20455;-62
2021/07/17 11:12:34;;;;;;;36.67;32.10;;;28.50;99.50;;;;;;4953623;29;20043;-64
2021/07/17 11:15:08;;;;;;;39.38;31.52;;;28.10;99.30;;;;;;4953610;29;20039;-64
2021/07/17 11:17:40;;;;;;;34.10;30.38;;;28.70;98.80;;;;;;4953554;29;20043;-60
2021/07/17 11:20:16;;;;;;;;;;;28.10;97.00;;;;;;4953487;29;20086;-62
2021/07/17 11:22:41;;;;;;;33.72;29.60;;;28.10;97.40;;;;;;4932658;28;19953;-62
2021/07/17 11:25:07;;;;;;;37.45;30.30;;;28.60;96.50;;;;;;4961282;28;20070;-60
2021/07/17 11:27:43;;;;;;;34.92;30.65;;;29.00;96.90;;;;;;4928688;28;20049;-60
2021/07/17 11:30:17;;;;;;;35.28;29.73;;;28.80;94.80;;;;;;4995211;28;20117;-61
2021/07/17 11:33:02;;;;;;;41.92;29.55;;;;;;;;;;4995531;28;20030;-62
2021/07/17 11:35:28;;;;;;;34.90;29.23;;;;;;;;;;4976736;28;20135;-62
2021/07/17 11:37:54;;;;;;;29.35;26.13;;;30.60;97.90;;;;;;4960828;28;20035;-62
2021/07/17 11:40:20;;;;;;;30.35;27.00;;;33.20;97.80;;;;;;4994639;28;20384;-60
2021/07/17 11:42:46;;;;;;;36.17;27.27;;;32.80;86.70;;;;;;4995175;28;20109;-62
2021/07/17 11:45:12;;;;;;;34.55;26.02;;;31.60;89.20;;;;;;4994849;28;20539;-61
2021/07/17 11:47:38;;;;;;;30.20;26.98;;;30.20;90.50;;;;;;4994604;28;20022;-60
2021/07/17 11:50:05;;;;;;;30.98;26.83;;;29.00;91.60;;;;;;4993194;28;20444;-60
2021/07/17 11:52:33;;;;;;;32.95;26.25;;;28.40;92.90;;;;;;4959526;28;20038;-60
2021/07/17 11:55:07;;;;;;;29.50;26.35;;;28.40;93.00;;;;;;4911643;28;20105;-61
2021/07/17 11:57:39;;;;;;;33.72;28.65;;;28.10;93.90;;;;;;4957744;28;20045;-62
2021/07/17 12:00:08;;;;;;;30.65;26.13;;;27.80;94.50;;;;;;4993246;28;20105;-60
2021/07/17 12:02:34;;;;;;;32.55;27.67;;;27.30;94.60;;;;;;4992512;28;20038;-60
2021/07/17 12:05:14;;;;;;;31.55;27.65;;;27.00;95.20;;;;;;4992921;28;20037;-62
2021/07/17 12:07:42;;;;;;;32.40;27.05;;;27.00;96.20;;;;;;4993252;28;20030;-61
2021/07/17 12:10:09;;;;;;;31.88;28.55;;;26.90;96.10;;;;;;4993346;28;20034;-60
2021/07/17 12:12:39;;;;;;;30.77;27.45;;;26.90;96.70;;;;;;4993328;28;20083;-61
2021/07/17 12:15:05;;;;;;;35.85;29.05;;;26.90;96.50;;;;;;4993324;28;20041;-60
2021/07/17 12:17:32;;;;;;;38.60;28.35;;;26.50;97.00;;;;;;4993229;28;20031;-61
2021/07/17 12:19:59;;;;;;;35.05;29.38;;;26.30;97.20;;;;;;4993228;28;20084;-61
2021/07/17 12:22:25;;;;;;;33.63;28.58;;;25.90;98.10;;;;;;4993135;28;20022;-60
2021/07/17 12:25:10;;;;;;;32.85;28.60;;;25.80;98.20;;;;;;4993207;28;20516;-62
2021/07/17 12:27:49;;;;;;;38.50;28.05;;;25.70;99.00;;;;;;4992499;28;20030;-60
2021/07/17 12:30:15;;;;;;;33.95;29.35;;;25.70;99.00;;;;;;4993064;28;20452;-59
2021/07/17 12:32:41;;;;;;;32.10;28.65;;;25.60;99.00;;;;;;4993075;28;20026;-63
2021/07/17 12:35:07;;;;;;;34.03;29.60;;;25.40;99.40;;;;;;4993126;28;20038;-60
2021/07/17 12:37:32;;;;;;;39.15;28.23;;;25.30;99.90;;;;;;4993015;28;20085;-62
2021/07/17 12:40:09;;;;;;;33.85;28.25;;;25.30;99.90;;;;;;4992979;28;20720;-59
2021/07/17 12:42:46;;;;;;;35.65;30.40;;;25.20;99.80;;;;;;4911057;28;20397;-61
2021/07/17 12:45:20;;;;;;;34.90;31.15;;;25.10;99.80;;;;;;4992540;28;20497;-65
2021/07/17 12:47:48;;;;;;;39.75;32.30;;;25.30;99.90;;;;;;4957280;28;20396;-60
2021/07/17 12:50:18;;;;;;;35.08;31.30;;;25.60;99.90;;;;;;4978459;28;20018;-63
2021/07/17 12:52:43;;;;;;;34.85;30.95;;;26.30;99.00;;;;;;4988644;28;20508;-64
2021/07/17 12:55:09;;;;;;;33.85;30.17;;;26.60;98.10;;;;;;4992256;28;20026;-67
2021/07/17 12:57:35;;;;;;;32.58;29.13;;;26.50;98.00;;;;;;4957541;28;20038;-61
2021/07/17 13:00:05;;;;;;;14.63;11.95;;;26.40;98.20;;;;;;4994065;28;20041;-61
2021/07/17 13:02:31;;;;;;;14.60;3.80;;;25.90;93.30;;;;;;4946765;28;20038;-62
2021/07/17 13:04:57;;;;;;;10.43;3.67;;;;;;;;;;4996784;28;20061;-62
2021/07/17 13:07:30;;;;;;;9.15;4.07;;;20.40;99.90;;;;;;4997468;28;20121;-59
2021/07/17 13:09:56;;;;;;;8.35;6.13;;;19.40;99.90;;;;;;4997162;28;20139;-58
2021/07/17 13:12:27;;;;;;;9.30;8.13;;;19.20;99.90;;;;;;4956778;29;20496;-59
2021/07/17 13:14:53;;;;;;;12.85;10.57;;;20.10;99.90;;;;;;4956882;29;20054;-59
2021/07/17 13:17:20;;;;;;;14.05;9.05;;;20.80;99.90;;;;;;4918594;29;20032;-58
2021/07/17 13:19:59;;;;;;;11.20;10.02;;;21.40;99.90;;;;;;4917900;29;20499;-58
2021/07/17 13:22:40;;;;;;;7.90;6.90;;;22.30;99.90;;;;;;4879359;29;20479;-55
2021/07/17 13:25:17;;;;;;;9.65;7.60;;;22.90;99.90;;;;;;4880092;29;20049;-55
2021/07/17 13:27:44;;;;;;;8.80;7.40;;;23.50;99.90;;;;;;4862247;29;20054;-55
2021/07/17 13:30:11;;;;;;;6.35;5.55;;;24.30;99.90;;;;;;4873468;29;20049;-56
2021/07/17 13:32:42;;;;;;;6.78;4.88;;;25.80;99.90;;;;;;4880525;29;20085;-57
2021/07/17 13:35:17;;;;;;;10.32;5.30;;;26.70;99.90;;;;;;4865200;29;20124;-57
2021/07/17 13:37:44;;;;;;;7.78;5.13;;;27.20;99.90;;;;;;4880126;29;20180;-55
2021/07/17 13:40:11;;;;;;;6.05;5.22;;;28.10;99.90;;;;;;4879594;29;20670;-58
2021/07/17 13:42:38;;;;;;;8.05;5.55;;;28.50;99.90;;;;;;4887916;29;20040;-56
2021/07/17 13:45:13;;;;;;;5.75;4.38;;;29.30;99.90;;;;;;4917295;29;20506;-58
2021/07/17 13:47:41;;;;;;;4.93;4.22;;;29.70;99.90;;;;;;4922422;29;20039;-59
2021/07/17 13:50:19;;;;;;;6.25;4.47;;;29.10;99.90;;;;;;4949452;29;20055;-58
2021/07/17 13:52:47;;;;;;;6.85;4.47;;;30.60;99.90;;;;;;4967828;28;20400;-58
2021/07/17 13:55:23;;;;;;;4.60;4.07;;;31.60;99.90;;;;;;4994453;28;20022;-58
2021/07/17 13:57:51;;;;;;;6.13;4.43;;;31.30;99.90;;;;;;4992850;28;20489;-57
2021/07/17 14:00:18;;;;;;;6.07;5.47;;;30.00;99.90;;;;;;4995822;28;20033;-57
2021/07/17 14:02:45;;;;;;;8.35;5.13;;;28.40;99.90;;;;;;4995628;28;20022;-58
2021/07/17 14:05:13;;;;;;;5.25;4.50;;;27.80;99.90;;;;;;4954270;29;20455;-58
2021/07/17 14:07:40;;;;;;;5.53;4.93;;;27.40;99.90;;;;;;4951750;29;20058;-58
2021/07/17 14:10:11;;;;;;;6.40;5.18;;;26.40;99.90;;;;;;4954380;29;20414;-58
2021/07/17 14:12:38;;;;;;;10.55;6.70;;;26.20;99.90;;;;;;4953858;28;20119;-59
2021/07/17 14:15:06;;;;;;;8.70;7.25;;;26.40;99.90;;;;;;4954393;29;20694;-55
2021/07/17 14:17:32;;;;;;;8.93;6.70;;;26.30;99.90;;;;;;4922645;29;20644;-57
2021/07/17 14:19:58;;;;;;;12.18;9.60;;;25.40;99.90;;;;;;4922377;29;20043;-56
2021/07/17 14:22:23;;;;;;;11.68;10.15;;;24.80;99.90;;;;;;4954397;29;20411;-59
2021/07/17 14:24:50;;;;;;;9.68;7.63;;;24.80;99.90;;;;;;4954240;29;20046;-57
2021/07/17 14:27:17;;;;;;;11.15;8.52;;;24.90;99.90;;;;;;4954326;29;20113;-57
2021/07/17 14:29:44;;;;;;;10.00;7.90;;;24.80;99.90;;;;;;4954211;29;20035;-59
2021/07/17 14:32:09;;;;;;;9.23;8.20;;;24.60;99.90;;;;;;4922238;29;20039;-56
2021/07/17 14:34:36;;;;;;;10.77;8.57;;;24.60;99.90;;;;;;4954201;29;20035;-56
2021/07/17 14:37:03;;;;;;;14.48;9.75;;;24.40;99.90;;;;;;4989149;28;20062;-57
2021/07/17 14:39:29;;;;;;;8.75;5.70;;;24.40;99.90;;;;;;4995136;28;20086;-56
2021/07/17 14:41:55;;;;;;;8.80;5.90;;;24.40;99.90;;;;;;4994939;28;20026;-56
2021/07/17 14:44:21;;;;;;;8.25;6.63;;;24.40;99.90;;;;;;4994963;28;20022;-56
2021/07/17 14:46:47;;;;;;;6.15;4.90;;;24.40;99.90;;;;;;4944492;28;20038;-57
2021/07/17 14:49:13;;;;;;;7.43;5.90;;;24.40;99.90;;;;;;4995066;28;20103;-59
2021/07/17 14:51:39;;;;;;;9.40;6.30;;;24.30;99.90;;;;;;4960479;28;20129;-58
2021/07/17 14:54:05;;;;;;;7.75;5.80;;;24.20;99.90;;;;;;4994570;28;20087;-56
2021/07/17 14:56:31;;;;;;;6.75;6.05;;;24.20;99.90;;;;;;4960129;28;20038;-58
2021/07/17 14:58:57;;;;;;;8.00;6.57;;;24.20;99.90;;;;;;4994624;28;20030;-56
2021/07/17 15:01:23;;;;;;;10.35;6.95;;;24.00;99.90;;;;;;4994683;28;20355;-57
2021/07/17 15:03:49;;;;;;;8.82;7.90;;;24.10;99.90;;;;;;4994468;28;20028;-56
2021/07/17 15:06:16;;;;;;;10.00;7.97;;;23.70;99.90;;;;;;4960149;28;20034;-58
2021/07/17 15:08:42;;;;;;;9.35;8.20;;;23.60;99.90;;;;;;4943862;28;20042;-58
2021/07/17 15:11:08;;;;;;;8.73;7.82;;;23.70;99.90;;;;;;4975573;28;20053;-57
2021/07/17 15:13:34;;;;;;;12.45;8.38;;;23.90;99.90;;;;;;4993867;28;20053;-58
2021/07/17 15:16:00;;;;;;;10.80;7.93;;;24.00;99.90;;;;;;4959644;28;20674;-58
2021/07/17 15:18:26;;;;;;;11.93;8.13;;;23.90;99.90;;;;;;4993771;28;20022;-57
2021/07/17 15:20:55;;;;;;;9.73;8.73;;;24.20;99.90;;;;;;4959101;28;20125;-56
2021/07/17 15:23:22;;;;;;;9.35;8.15;;;23.70;99.90;;;;;;4993162;28;20462;-58
2021/07/17 15:25:49;;;;;;;10.90;7.30;;;23.40;99.90;;;;;;4992696;28;20041;-60
2021/07/17 15:28:15;;;;;;;10.00;7.20;;;22.90;99.90;;;;;;4994315;28;20034;-59
2021/07/17 15:30:43;;;;;;;8.48;6.78;;;22.90;99.90;;;;;;4989931;28;20127;-60
2021/07/17 15:33:09;;;;;;;8.15;6.80;;;22.90;99.90;;;;;;4932618;29;20488;-59
2021/07/17 15:35:36;;;;;;;7.75;7.05;;;23.00;99.90;;;;;;4933851;29;20048;-59
2021/07/17 15:38:03;;;;;;;8.10;6.80;;;23.30;99.90;;;;;;4951748;29;20054;-58
2021/07/17 15:40:30;;;;;;;8.43;7.03;;;23.80;99.90;;;;;;4952544;29;20050;-61
2021/07/17 15:42:56;;;;;;;8.73;6.85;;;23.50;99.90;;;;;;4952809;29;20595;-58
2021/07/17 15:45:23;;;;;;;8.82;7.30;;;23.60;99.90;;;;;;4952853;29;20047;-58
2021/07/17 15:47:51;;;;;;;11.80;6.93;;;24.00;99.90;;;;;;4952711;29;20391;-56
2021/07/17 15:50:16;;;;;;;8.93;7.25;;;24.20;99.90;;;;;;4952623;29;20031;-58
2021/07/17 15:52:42;;;;;;;7.43;6.65;;;24.50;99.90;;;;;;4936237;29;20051;-58
2021/07/17 15:55:09;;;;;;;8.85;7.72;;;24.90;99.90;;;;;;4952618;29;20046;-57
2021/07/17 15:57:35;;;;;;;9.10;7.97;;;25.10;99.90;;;;;;4936472;29;20047;-55
2021/07/17 16:00:07;;;;;;;8.98;7.15;;;24.60;99.90;;;;;;4952278;29;20066;-56
2021/07/17 16:02:33;;;;;;;9.20;6.80;;;24.30;99.90;;;;;;4895117;29;20072;-59
2021/07/17 16:04:58;;;;;;;12.95;8.55;;;24.00;99.90;;;;;;4927766;29;20083;-57
2021/07/17 16:07:24;;;;;;;9.98;7.65;;;24.00;99.90;;;;;;4932751;29;20047;-55
2021/07/17 16:09:50;;;;;;;8.27;7.40;;;24.00;99.90;;;;;;4932874;29;20403;-57
2021/07/17 16:12:16;;;;;;;9.75;7.55;;;24.10;99.90;;;;;;4932801;29;20036;-54
2021/07/17 16:14:42;;;;;;;8.88;7.22;;;24.20;99.90;;;;;;4932325;29;20048;-58
2021/07/17 16:29:49;;;;;;;11.40;8.00;;;24.80;99.90;;;;;;5060490;28;20891;-56
2021/07/17 16:32:14;;;;;;;10.20;8.13;;;24.90;99.90;;;;;;5046163;28;20036;-58
2021/07/17 16:34:41;;;;;;;9.93;8.93;;;25.00;99.90;;;;;;5076177;28;20606;-58
2021/07/17 16:37:07;;;;;;;9.65;8.75;;;25.20;99.90;;;;;;5055932;28;20020;-58
2021/07/17 16:39:32;;;;;;;9.38;8.48;;;25.20;99.90;;;;;;5034865;28;20075;-55
2021/07/17 16:41:58;;;;;;;12.15;8.80;;;25.30;99.90;;;;;;5032533;28;20091;-56
2021/07/17 16:44:24;;;;;;;15.88;10.05;;;25.20;99.90;;;;;;5043524;28;20116;-57
2021/07/17 16:46:50;;;;;;;19.95;14.30;;;25.00;99.90;;;;;;5051886;28;20041;-55
2021/07/17 16:49:15;;;;;;;33.30;22.10;;;24.70;99.90;;;;;;5046792;28;20021;-58
2021/07/17 16:51:41;;;;;;;29.08;18.23;;;24.80;99.90;;;;;;5041456;28;20388;-57
2021/07/17 16:54:08;;;;;;;17.63;13.52;;;24.90;99.90;;;;;;5042099;28;20148;-56
2021/07/17 16:56:34;;;;;;;14.77;12.85;;;24.70;99.90;;;;;;5036600;28;20014;-57
2021/07/17 16:58:59;;;;;;;13.88;12.48;;;24.70;99.90;;;;;;5041969;28;20029;-56
2021/07/17 17:01:25;;;;;;;16.88;14.00;;;24.50;99.90;;;;;;5045935;28;20021;-58
2021/07/17 17:03:51;;;;;;;19.75;13.80;;;24.30;99.90;;;;;;5049885;28;20376;-57
2021/07/17 17:06:17;;;;;;;16.42;14.75;;;24.30;99.90;;;;;;5047449;28;20037;-57
2021/07/17 17:08:43;;;;;;;16.50;14.85;;;24.20;99.90;;;;;;5041842;28;20049;-56
2021/07/17 17:11:08;;;;;;;16.05;13.88;;;24.10;99.90;;;;;;5041467;28;20021;-57
2021/07/17 17:13:35;;;;;;;21.33;18.63;;;24.20;99.90;;;;;;5059082;28;20126;-55
2021/07/17 17:16:01;;;;;;;20.83;17.83;;;24.10;99.90;;;;;;5044622;28;20025;-56
2021/07/17 17:18:26;;;;;;;20.27;16.45;;;24.00;99.90;;;;;;5068712;28;20065;-55
2021/07/17 17:20:54;;;;;;;17.23;15.43;;;23.90;99.90;;;;;;5042267;28;20112;-54
2021/07/17 17:23:20;;;;;;;16.80;13.23;;;23.70;99.90;;;;;;5037534;28;20030;-55
2021/07/17 17:25:47;;;;;;;16.58;14.57;;;23.50;99.90;;;;;;5034384;28;20105;-58
2021/07/17 17:28:13;;;;;;;21.23;14.68;;;23.50;99.90;;;;;;5034427;28;20132;-56
2021/07/17 17:30:39;;;;;;;16.05;14.35;;;23.50;99.90;;;;;;5039398;28;20143;-55
2021/07/17 17:33:05;;;;;;;18.25;14.88;;;23.40;99.90;;;;;;5028771;28;20032;-56
2021/07/17 17:35:31;;;;;;;19.50;14.05;;;23.50;99.90;;;;;;5038197;28;20400;-58
2021/07/17 17:37:57;;;;;;;17.27;14.32;;;23.40;99.90;;;;;;5050919;28;20124;-57
2021/07/17 17:40:24;;;;;;;19.20;14.82;;;23.30;99.90;;;;;;5065237;28;20095;-58
2021/07/17 17:42:50;;;;;;;19.33;15.65;;;23.20;99.90;;;;;;5038927;28;20084;-58
2021/07/17 17:45:17;;;;;;;22.38;17.92;;;23.20;99.90;;;;;;5038580;28;20021;-55
2021/07/17 17:47:43;;;;;;;22.33;19.98;;;23.20;99.90;;;;;;5023186;28;20034;-57
2021/07/17 17:50:11;;;;;;;28.05;21.15;;;23.20;99.90;;;;;;5037611;28;20025;-62
2021/07/17 17:52:38;;;;;;;23.42;17.88;;;23.10;99.90;;;;;;5046922;28;20034;-61
2021/07/17 17:55:06;;;;;;;19.95;17.83;;;22.70;99.90;;;;;;5046913;28;20061;-59
2021/07/17 17:57:32;;;;;;;22.15;18.80;;;22.70;99.90;;;;;;5032162;28;20090;-60
2021/07/17 17:59:58;;;;;;;16.75;13.32;;;22.70;99.90;;;;;;5032578;28;20045;-60
2021/07/17 18:02:25;;;;;;;10.32;7.88;;;22.70;99.90;;;;;;5028293;28;20021;-60
2021/07/17 18:04:51;;;;;;;14.82;10.25;;;22.60;99.90;;;;;;5034712;28;20025;-61
2021/07/17 18:07:17;;;;;;;12.77;10.80;;;22.50;99.90;;;;;;5031447;28;20071;-61
2021/07/17 18:09:43;;;;;;;14.02;9.88;;;22.40;99.90;;;;;;5032240;28;20486;-60
2021/07/17 18:12:10;;;;;;;11.73;9.77;;;22.30;99.90;;;;;;5036282;28;20471;-59
2021/07/17 18:14:37;;;;;;;29.27;24.88;;;22.20;99.90;;;;;;5030332;28;20375;-57
2021/07/17 18:17:05;;;;;;;22.63;14.35;;;22.10;99.90;;;;;;5035753;28;20483;-61
2021/07/17 18:19:31;;;;;;;30.10;19.05;;;22.00;99.90;;;;;;5040469;28;20456;-58
2021/07/17 18:21:57;;;;;;;40.58;23.98;;;22.00;99.90;;;;;;5059335;28;20043;-60
2021/07/17 18:24:23;;;;;;;13.70;12.02;;;21.90;99.90;;;;;;5057492;28;20120;-61
2021/07/17 18:26:49;;;;;;;13.80;12.32;;;21.80;99.90;;;;;;5038601;28;20472;-59
2021/07/17 18:29:15;;;;;;;19.05;11.85;;;21.70;99.90;;;;;;5027842;28;20564;-59
2021/07/17 18:31:42;;;;;;;13.55;11.77;;;21.60;99.90;;;;;;5053813;28;20120;-61
2021/07/17 18:34:08;;;;;;;15.10;12.80;;;21.60;99.90;;;;;;5038878;28;20067;-59
2021/07/17 18:36:33;;;;;;;16.85;14.13;;;21.40;99.90;;;;;;5031939;28;20053;-60
2021/07/17 18:38:59;;;;;;;22.13;15.15;;;21.40;99.90;;;;;;5040645;28;20033;-61
2021/07/17 18:41:25;;;;;;;19.50;14.32;;;21.40;99.90;;;;;;5024857;28;20030;-59
2021/07/17 18:43:52;;;;;;;22.63;16.45;;;21.30;99.90;;;;;;5025548;28;20021;-58
2021/07/17 18:46:18;;;;;;;22.15;16.80;;;21.20;99.90;;;;;;5032394;28;20480;-61
2021/07/17 18:48:45;;;;;;;19.60;15.13;;;20.90;99.90;;;;;;5041291;28;20022;-59
2021/07/17 18:51:11;;;;;;;20.25;15.70;;;20.80;99.90;;;;;;5038256;28;20115;-58
2021/07/17 18:53:37;;;;;;;19.55;15.65;;;20.90;99.90;;;;;;5039842;28;20051;-60
2021/07/17 18:56:04;;;;;;;21.05;17.10;;;20.90;99.90;;;;;;5039854;28;20026;-58
2021/07/17 18:58:30;;;;;;;20.33;15.35;;;20.70;99.90;;;;;;5022957;28;20115;-60
2021/07/17 19:00:56;;;;;;;19.27;16.48;;;20.80;99.90;;;;;;5050109;28;20484;-60
2021/07/17 19:03:22;;;;;;;17.52;15.63;;;20.80;99.90;;;;;;5050853;28;20042;-60
2021/07/17 19:05:48;;;;;;;19.88;16.05;;;20.80;99.90;;;;;;5034708;28;20337;-60
2021/07/17 19:08:14;;;;;;;18.08;16.17;;;20.80;99.90;;;;;;5039714;28;20036;-61
2021/07/17 19:10:39;;;;;;;19.65;16.17;;;20.80;99.90;;;;;;5032408;28;20445;-59
2021/07/17 19:13:05;;;;;;;18.13;15.20;;;20.80;99.90;;;;;;5036371;28;20021;-60
2021/07/17 19:15:31;;;;;;;17.88;14.82;;;20.70;99.90;;;;;;5028248;28;20025;-58
2021/07/17 19:17:57;;;;;;;19.75;14.23;;;20.70;99.90;;;;;;5039509;28;20121;-58
2021/07/17 19:20:23;;;;;;;28.00;17.65;;;20.70;99.90;;;;;;5064810;28;20041;-58
2021/07/17 19:22:53;;;;;;;18.92;15.98;;;20.60;99.90;;;;;;5033727;28;20484;-60
2021/07/17 19:25:21;;;;;;;18.02;13.60;;;20.50;99.90;;;;;;5034229;28;20034;-58
2021/07/17 19:27:47;;;;;;;14.80;12.98;;;20.50;99.90;;;;;;5051868;28;20041;-59
2021/07/17 19:30:16;;;;;;;18.55;13.27;;;20.30;99.90;;;;;;5052015;28;20037;-60
2021/07/17 19:32:42;;;;;;;15.95;13.75;;;20.20;99.90;;;;;;5052086;28;20032;-57
2021/07/17 19:35:09;;;;;;;16.63;14.05;;;20.20;99.90;;;;;;5051852;28;20033;-57
2021/07/17 19:37:34;;;;;;;18.73;14.75;;;20.20;99.90;;;;;;5051738;28;20090;-56
2021/07/17 19:40:00;;;;;;;15.15;13.43;;;20.20;99.90;;;;;;5051187;28;20507;-56
2021/07/17 19:42:26;;;;;;;14.95;13.38;;;20.20;99.90;;;;;;5051825;28;20049;-59
2021/07/17 19:44:52;;;;;;;17.13;14.38;;;20.20;99.90;;;;;;5051649;28;20060;-58
2021/07/17 19:47:20;;;;;;;17.08;15.23;;;20.30;99.90;;;;;;5040164;28;20052;-60
2021/07/17 19:49:47;;;;;;;17.17;15.38;;;20.40;99.90;;;;;;5011085;28;20526;-57
2021/07/17 19:52:12;;;;;;;17.15;13.45;;;20.40;99.90;;;;;;5028573;28;20523;-59
2021/07/17 19:54:38;;;;;;;17.40;12.80;;;20.40;99.90;;;;;;5014371;28;20068;-57
2021/07/17 19:57:04;;;;;;;15.70;13.77;;;20.40;99.90;;;;;;5028834;28;20029;-57
2021/07/17 19:59:30;;;;;;;14.60;12.95;;;20.40;99.90;;;;;;5028741;28;20038;-59
2021/07/17 20:01:56;;;;;;;15.30;12.32;;;20.40;99.90;;;;;;5033007;28;20029;-59
2021/07/17 20:04:21;;;;;;;15.32;13.75;;;20.30;99.90;;;;;;5032940;28;20053;-58
2021/07/17 20:06:47;;;;;;;14.77;12.85;;;20.20;99.90;;;;;;5032815;28;20037;-58
2021/07/17 20:09:13;;;;;;;16.38;12.40;;;20.20;99.90;;;;;;5032884;28;20168;-57
2021/07/17 20:11:39;;;;;;;15.45;13.52;;;20.10;99.90;;;;;;5032845;28;20025;-57
2021/07/17 20:14:04;;;;;;;28.13;18.42;;;20.00;99.90;;;;;;5032698;28;20024;-58
2021/07/17 20:16:31;;;;;;;27.77;20.15;;;20.00;99.90;;;;;;5032911;28;20076;-59
2021/07/17 20:18:56;;;;;;;24.52;19.67;;;19.90;99.90;;;;;;5032860;28;20047;-57
2021/07/17 20:21:22;;;;;;;23.05;17.65;;;19.80;99.90;;;;;;5032578;28;20131;-57
2021/07/17 20:23:48;;;;;;;20.58;17.20;;;19.80;99.90;;;;;;5029531;28;20113;-59
2021/07/17 20:26:15;;;;;;;19.38;15.25;;;19.70;99.90;;;;;;5032682;28;20033;-58
2021/07/17 20:28:41;;;;;;;21.85;16.85;;;19.80;99.90;;;;;;5032394;28;20064;-58
2021/07/17 20:31:07;;;;;;;22.30;15.57;;;19.80;99.90;;;;;;5032524;28;20052;-59
2021/07/17 20:33:33;;;;;;;19.33;16.48;;;19.70;99.90;;;;;;5032666;28;20582;-58
2021/07/17 20:36:00;;;;;;;19.55;17.13;;;19.80;99.90;;;;;;5031755;28;20025;-59
2021/07/17 20:38:27;;;;;;;21.05;16.33;;;19.80;99.90;;;;;;5031761;28;20040;-59
2021/07/17 20:40:53;;;;;;;17.17;14.23;;;19.70;99.90;;;;;;5032072;28;20053;-59
2021/07/17 20:43:20;;;;;;;17.58;15.70;;;19.60;99.90;;;;;;5031873;28;20033;-56
2021/07/17 20:45:46;;;;;;;26.70;18.48;;;19.50;99.90;;;;;;5032182;28;20041;-59
2021/07/17 20:48:12;;;;;;;22.45;17.58;;;19.40;99.90;;;;;;5031975;28;20057;-59
2021/07/17 20:50:38;;;;;;;26.85;18.23;;;19.30;99.90;;;;;;5046473;28;20441;-59
2021/07/17 20:53:06;;;;;;;42.58;28.27;;;19.30;99.90;;;;;;5013488;28;20083;-57
2021/07/17 20:55:32;;;;;;;44.60;28.45;;;19.30;99.90;;;;;;5031995;28;20549;-57
2021/07/17 20:57:59;;;;;;;36.67;25.25;;;19.40;99.90;;;;;;5029288;28;20040;-59
2021/07/17 21:00:26;;;;;;;38.78;25.08;;;19.50;99.90;;;;;;5032471;28;20026;-57
2021/07/17 21:02:52;;;;;;;39.63;27.38;;;19.60;99.90;;;;;;5032387;28;20021;-59
2021/07/17 21:05:20;;;;;;;40.10;26.45;;;19.60;99.90;;;;;;5032412;28;20026;-57
2021/07/17 21:07:48;;;;;;;30.77;22.38;;;19.70;99.90;;;;;;5036808;28;20018;-59
2021/07/17 21:10:17;;;;;;;27.73;20.48;;;19.80;99.90;;;;;;5036206;28;20096;-60
2021/07/17 21:12:44;;;;;;;27.45;20.25;;;19.90;99.90;;;;;;5029228;28;20029;-60
2021/07/17 21:15:12;;;;;;;22.60;16.98;;;19.70;99.90;;;;;;5050222;28;20112;-60
2021/07/17 21:17:38;;;;;;;18.38;14.55;;;19.70;99.90;;;;;;5033899;28;20120;-61
2021/07/17 21:20:05;;;;;;;20.75;16.80;;;19.80;99.90;;;;;;5035014;28;20029;-61
2021/07/17 21:22:31;;;;;;;18.33;14.85;;;19.90;99.90;;;;;;5049990;28;20033;-61
2021/07/17 21:24:57;;;;;;;18.90;14.73;;;19.90;99.90;;;;;;5035063;28;20107;-59
2021/07/17 21:27:23;;;;;;;20.77;15.50;;;19.90;99.90;;;;;;5049629;28;20037;-61
2021/07/17 21:29:48;;;;;;;23.92;17.05;;;19.90;99.90;;;;;;5035109;28;20017;-61
2021/07/17 21:32:14;;;;;;;17.38;14.73;;;19.80;99.90;;;;;;5035254;28;20443;-60
2021/07/17 21:34:42;;;;;;;21.85;14.20;;;19.80;99.90;;;;;;5034999;28;20049;-61
2021/07/17 21:37:09;;;;;;;18.92;14.05;;;19.80;99.90;;;;;;5034947;28;20460;-58
2021/07/17 21:39:35;;;;;;;21.85;14.88;;;19.90;99.90;;;;;;5036014;28;20468;-61
2021/07/17 21:42:01;;;;;;;21.55;14.40;;;19.90;99.90;;;;;;5035935;28;20041;-62
2021/07/17 21:44:26;;;;;;;23.10;14.77;;;20.00;99.90;;;;;;5036091;28;20419;-58
2021/07/17 21:46:52;;;;;;;23.08;15.93;;;20.00;99.90;;;;;;5035383;28;20472;-62
2021/07/17 21:49:18;;;;;;;23.52;15.45;;;19.90;99.90;;;;;;5035934;28;20108;-60
2021/07/17 21:51:44;;;;;;;21.23;15.93;;;19.80;99.90;;;;;;5035929;28;20025;-61
2021/07/17 21:54:09;;;;;;;22.45;16.35;;;19.70;99.90;;;;;;5036010;28;20025;-60
2021/07/17 21:56:37;;;;;;;23.20;14.95;;;19.70;99.90;;;;;;5042032;28;20029;-58
2021/07/17 21:59:04;;;;;;;20.08;14.57;;;19.70;99.90;;;;;;5038781;28;20237;-58
2021/07/17 22:01:33;;;;;;;18.90;14.77;;;19.60;99.90;;;;;;5045724;28;20130;-59
2021/07/17 22:04:00;;;;;;;17.45;12.88;;;19.60;99.90;;;;;;5035662;28;20025;-59
2021/07/17 22:06:29;;;;;;;15.98;12.48;;;19.50;99.90;;;;;;5035690;28;20034;-59
2021/07/17 22:08:55;;;;;;;13.27;10.85;;;19.50;99.90;;;;;;5035525;28;20095;-58
2021/07/17 22:11:21;;;;;;;14.52;10.80;;;19.60;99.90;;;;;;5035756;28;20053;-58
2021/07/17 22:13:47;;;;;;;12.77;11.05;;;19.60;99.90;;;;;;5035549;28;20064;-60
2021/07/17 22:16:13;;;;;;;13.82;10.52;;;19.60;99.90;;;;;;5030258;28;20048;-61
2021/07/17 22:18:40;;;;;;;13.65;10.32;;;19.60;99.90;;;;;;5015566;28;20072;-59
2021/07/17 22:21:08;;;;;;;11.80;10.23;;;19.60;99.90;;;;;;5015224;28;20149;-61
2021/07/17 22:23:35;;;;;;;14.88;10.52;;;19.60;99.90;;;;;;5013806;28;20125;-57
2021/07/17 22:26:00;;;;;;;11.38;10.25;;;19.60;99.90;;;;;;5015770;28;20426;-60
2021/07/17 22:28:26;;;;;;;16.58;10.32;;;19.60;99.90;;;;;;5015395;28;20077;-59
2021/07/17 22:30:53;;;;;;;13.65;12.25;;;19.70;99.90;;;;;;5015389;28;20113;-59
2021/07/17 22:33:19;;;;;;;14.23;11.50;;;19.70;99.90;;;;;;5013643;28;20042;-61
2021/07/17 22:35:47;;;;;;;14.50;11.63;;;19.70;99.90;;;;;;5013431;28;20033;-60
2021/07/17 22:38:14;;;;;;;15.27;11.10;;;19.70;99.90;;;;;;5015209;28;20034;-58